Kezdőlap
METAR-TAF:

METAR-TAF

Repülőterek :

Carroll, Iowa, Amerikai Egyesült Államok

földrajzi szélesség: 42-03N, földrajzi hosszúság: 094-47W, magasság: 375 m

Jelenlegi meteorológiai megfigyelések

A jelentés 22 perccel ezelõtt készült, 05:55 UTC
Észak-északnyugati szél 21 kt széllökések: 28 kt
Hőmérséklet -4°C
Páratartalom 86%
Légköri nyomás 1019 hPa
Látótávolság: 16.1 km
Szakadozott felhőzet 1700 lábon

METAR: KCIN 180555Z AUTO 34021G28KT 10SM BKN017 M04/M06 A3009 RMK AO2

Idő: 00:17 (06:17 UTC)


TAF: hiányzik

Meteorológiai megfigyelések és előrejelzések több, mint 4000 repülőtéren (METAR és TAF jelentéseket).

A térképen piros és sárga pontok jelzik az elérhető meteorológiai állomásokat.

Mozgassa az egeret a pont fölött, hogy megjelenjen az állomás neve.

Azután kattintson az időjárási megfigyelések és előrejelzések megtekintéséhez.

A térkép megváltoztatása: kattintson a fekete keresztel jelölt zöld gombra ráközelítéshez, a vonallal jelölt zöld gombra távolításhoz, vagy a zöld nyilakra a szomszédos térképek eléréséhez.


METAR-TAF: